sensor_id;sensor_type;location;lat;lon;timestamp;temperature;humidity
19588;DHT22;9940;47.252;8.696;2023-05-10T00:00:24;14.90;99.90
19588;DHT22;9940;47.252;8.696;2023-05-10T00:02:52;14.90;99.90
19588;DHT22;9940;47.252;8.696;2023-05-10T00:05:20;14.90;99.90
19588;DHT22;9940;47.252;8.696;2023-05-10T00:07:45;14.90;99.90
19588;DHT22;9940;47.252;8.696;2023-05-10T00:10:11;14.90;99.90
19588;DHT22;9940;47.252;8.696;2023-05-10T00:12:39;14.90;99.90
19588;DHT22;9940;47.252;8.696;2023-05-10T00:15:05;14.80;99.90
19588;DHT22;9940;47.252;8.696;2023-05-10T00:17:33;14.80;99.90
19588;DHT22;9940;47.252;8.696;2023-05-10T00:20:03;14.80;99.90
19588;DHT22;9940;47.252;8.696;2023-05-10T00:22:32;14.80;99.90
19588;DHT22;9940;47.252;8.696;2023-05-10T00:24:59;14.80;99.90
19588;DHT22;9940;47.252;8.696;2023-05-10T00:27:29;14.80;99.90
19588;DHT22;9940;47.252;8.696;2023-05-10T00:29:57;14.80;99.90
19588;DHT22;9940;47.252;8.696;2023-05-10T00:32:23;14.80;99.90
19588;DHT22;9940;47.252;8.696;2023-05-10T00:34:48;14.80;99.90
19588;DHT22;9940;47.252;8.696;2023-05-10T00:37:14;14.80;99.90
19588;DHT22;9940;47.252;8.696;2023-05-10T00:39:42;14.80;99.90
19588;DHT22;9940;47.252;8.696;2023-05-10T00:42:07;14.70;99.90
19588;DHT22;9940;47.252;8.696;2023-05-10T00:44:37;14.80;99.90
19588;DHT22;9940;47.252;8.696;2023-05-10T00:47:03;14.80;99.90
19588;DHT22;9940;47.252;8.696;2023-05-10T00:49:29;14.70;99.90
19588;DHT22;9940;47.252;8.696;2023-05-10T00:51:55;14.70;99.90
19588;DHT22;9940;47.252;8.696;2023-05-10T00:54:21;14.70;99.90
19588;DHT22;9940;47.252;8.696;2023-05-10T00:56:49;14.70;99.90
19588;DHT22;9940;47.252;8.696;2023-05-10T00:59:17;14.70;99.90
19588;DHT22;9940;47.252;8.696;2023-05-10T01:01:46;14.70;99.90
19588;DHT22;9940;47.252;8.696;2023-05-10T01:04:12;14.70;99.90
19588;DHT22;9940;47.252;8.696;2023-05-10T01:06:41;14.70;99.90
19588;DHT22;9940;47.252;8.696;2023-05-10T01:09:07;14.70;99.90
19588;DHT22;9940;47.252;8.696;2023-05-10T01:11:38;14.70;99.90
19588;DHT22;9940;47.252;8.696;2023-05-10T01:14:05;14.70;99.90
19588;DHT22;9940;47.252;8.696;2023-05-10T01:16:40;14.70;99.90
19588;DHT22;9940;47.252;8.696;2023-05-10T01:19:23;14.70;99.90
19588;DHT22;9940;47.252;8.696;2023-05-10T01:36:31;14.70;99.90
19588;DHT22;9940;47.252;8.696;2023-05-10T01:39:28;14.70;99.90
19588;DHT22;9940;47.252;8.696;2023-05-10T01:42:14;14.70;99.90
19588;DHT22;9940;47.252;8.696;2023-05-10T01:44:46;14.70;99.90
19588;DHT22;9940;47.252;8.696;2023-05-10T01:47:24;14.70;99.90
19588;DHT22;9940;47.252;8.696;2023-05-10T01:49:53;14.70;99.90
19588;DHT22;9940;47.252;8.696;2023-05-10T01:52:26;14.70;99.90
19588;DHT22;9940;47.252;8.696;2023-05-10T01:55:00;14.70;99.90
19588;DHT22;9940;47.252;8.696;2023-05-10T01:57:33;14.70;99.90
19588;DHT22;9940;47.252;8.696;2023-05-10T02:00:02;14.70;99.90
19588;DHT22;9940;47.252;8.696;2023-05-10T02:02:39;14.70;99.90
19588;DHT22;9940;47.252;8.696;2023-05-10T02:05:08;14.70;99.90
19588;DHT22;9940;47.252;8.696;2023-05-10T02:07:37;14.70;99.90
19588;DHT22;9940;47.252;8.696;2023-05-10T02:10:07;14.70;99.90
19588;DHT22;9940;47.252;8.696;2023-05-10T02:12:40;14.80;99.90
19588;DHT22;9940;47.252;8.696;2023-05-10T02:15:10;14.80;99.90
19588;DHT22;9940;47.252;8.696;2023-05-10T02:17:37;14.80;99.90
19588;DHT22;9940;47.252;8.696;2023-05-10T02:20:06;14.80;99.90
19588;DHT22;9940;47.252;8.696;2023-05-10T02:22:34;14.80;99.90
19588;DHT22;9940;47.252;8.696;2023-05-10T02:25:01;14.80;99.90
19588;DHT22;9940;47.252;8.696;2023-05-10T02:27:29;14.80;99.90
19588;DHT22;9940;47.252;8.696;2023-05-10T02:29:57;14.90;99.90
19588;DHT22;9940;47.252;8.696;2023-05-10T02:32:25;14.90;99.90
19588;DHT22;9940;47.252;8.696;2023-05-10T02:34:52;14.80;99.90
19588;DHT22;9940;47.252;8.696;2023-05-10T02:37:22;14.90;99.90
19588;DHT22;9940;47.252;8.696;2023-05-10T02:39:49;14.90;99.90
19588;DHT22;9940;47.252;8.696;2023-05-10T02:42:24;14.90;99.90
19588;DHT22;9940;47.252;8.696;2023-05-10T02:44:56;14.80;99.90
19588;DHT22;9940;47.252;8.696;2023-05-10T02:47:24;14.90;99.90
19588;DHT22;9940;47.252;8.696;2023-05-10T02:49:52;14.80;99.90
19588;DHT22;9940;47.252;8.696;2023-05-10T02:52:25;14.80;99.90
19588;DHT22;9940;47.252;8.696;2023-05-10T02:54:55;14.80;99.90
19588;DHT22;9940;47.252;8.696;2023-05-10T02:57:32;14.80;99.90
19588;DHT22;9940;47.252;8.696;2023-05-10T02:59:59;14.80;99.90
19588;DHT22;9940;47.252;8.696;2023-05-10T03:02:26;14.70;99.90
19588;DHT22;9940;47.252;8.696;2023-05-10T03:04:52;14.70;99.90
19588;DHT22;9940;47.252;8.696;2023-05-10T03:07:17;14.60;99.90
19588;DHT22;9940;47.252;8.696;2023-05-10T03:09:50;14.60;99.90
19588;DHT22;9940;47.252;8.696;2023-05-10T03:12:32;14.60;99.90
19588;DHT22;9940;47.252;8.696;2023-05-10T03:20:26;14.60;99.90
19588;DHT22;9940;47.252;8.696;2023-05-10T03:23:21;14.60;99.90
19588;DHT22;9940;47.252;8.696;2023-05-10T03:25:48;14.60;99.90
19588;DHT22;9940;47.252;8.696;2023-05-10T03:28:18;14.50;99.90
19588;DHT22;9940;47.252;8.696;2023-05-10T03:30:47;14.50;99.90
19588;DHT22;9940;47.252;8.696;2023-05-10T03:33:15;14.50;99.90
19588;DHT22;9940;47.252;8.696;2023-05-10T03:35:41;14.50;99.90
19588;DHT22;9940;47.252;8.696;2023-05-10T03:38:11;14.40;99.90
19588;DHT22;9940;47.252;8.696;2023-05-10T03:40:39;14.40;99.90
19588;DHT22;9940;47.252;8.696;2023-05-10T03:43:05;14.40;99.90
19588;DHT22;9940;47.252;8.696;2023-05-10T03:45:31;14.40;99.90
19588;DHT22;9940;47.252;8.696;2023-05-10T03:47:57;14.40;99.90
19588;DHT22;9940;47.252;8.696;2023-05-10T03:50:23;14.40;99.90
19588;DHT22;9940;47.252;8.696;2023-05-10T03:52:51;14.40;99.90
19588;DHT22;9940;47.252;8.696;2023-05-10T03:55:17;14.30;99.90
19588;DHT22;9940;47.252;8.696;2023-05-10T03:57:45;14.40;99.90
19588;DHT22;9940;47.252;8.696;2023-05-10T04:00:13;14.40;99.90
19588;DHT22;9940;47.252;8.696;2023-05-10T04:02:39;14.40;99.90
19588;DHT22;9940;47.252;8.696;2023-05-10T04:05:05;14.40;99.90
19588;DHT22;9940;47.252;8.696;2023-05-10T04:07:31;14.40;99.90
19588;DHT22;9940;47.252;8.696;2023-05-10T04:10:20;14.40;99.90
19588;DHT22;9940;47.252;8.696;2023-05-10T04:12:46;14.40;99.90
19588;DHT22;9940;47.252;8.696;2023-05-10T04:15:12;14.40;99.90
19588;DHT22;9940;47.252;8.696;2023-05-10T04:17:38;14.30;99.90
19588;DHT22;9940;47.252;8.696;2023-05-10T04:20:04;14.30;99.90
19588;DHT22;9940;47.252;8.696;2023-05-10T04:22:32;14.40;99.90
19588;DHT22;9940;47.252;8.696;2023-05-10T04:24:58;14.40;99.90
19588;DHT22;9940;47.252;8.696;2023-05-10T04:27:27;14.40;99.90
19588;DHT22;9940;47.252;8.696;2023-05-10T04:29:53;14.40;99.90
19588;DHT22;9940;47.252;8.696;2023-05-10T04:32:21;14.40;99.90
19588;DHT22;9940;47.252;8.696;2023-05-10T04:34:47;14.40;99.90
19588;DHT22;9940;47.252;8.696;2023-05-10T04:37:15;14.40;99.90
19588;DHT22;9940;47.252;8.696;2023-05-10T04:39:43;14.40;99.90
19588;DHT22;9940;47.252;8.696;2023-05-10T04:42:09;14.40;99.90
19588;DHT22;9940;47.252;8.696;2023-05-10T04:44:35;14.50;99.90
19588;DHT22;9940;47.252;8.696;2023-05-10T04:47:03;14.50;99.90
19588;DHT22;9940;47.252;8.696;2023-05-10T04:49:31;14.40;99.90
19588;DHT22;9940;47.252;8.696;2023-05-10T04:51:57;14.40;99.90
19588;DHT22;9940;47.252;8.696;2023-05-10T04:54:25;14.40;99.90
19588;DHT22;9940;47.252;8.696;2023-05-10T04:56:51;14.30;99.90
19588;DHT22;9940;47.252;8.696;2023-05-10T04:59:16;14.20;99.90
19588;DHT22;9940;47.252;8.696;2023-05-10T05:01:44;14.10;99.90
19588;DHT22;9940;47.252;8.696;2023-05-10T05:04:12;14.00;99.90
19588;DHT22;9940;47.252;8.696;2023-05-10T05:06:38;14.00;99.90
19588;DHT22;9940;47.252;8.696;2023-05-10T05:09:03;13.90;99.90
19588;DHT22;9940;47.252;8.696;2023-05-10T05:11:31;13.80;99.90
19588;DHT22;9940;47.252;8.696;2023-05-10T05:14:00;13.80;99.90
19588;DHT22;9940;47.252;8.696;2023-05-10T05:16:25;13.80;99.90
19588;DHT22;9940;47.252;8.696;2023-05-10T05:18:54;13.80;99.90
19588;DHT22;9940;47.252;8.696;2023-05-10T05:21:20;13.80;99.90
19588;DHT22;9940;47.252;8.696;2023-05-10T05:23:46;13.80;99.90
19588;DHT22;9940;47.252;8.696;2023-05-10T05:26:12;13.80;99.90
19588;DHT22;9940;47.252;8.696;2023-05-10T05:28:43;13.90;99.90
19588;DHT22;9940;47.252;8.696;2023-05-10T05:31:11;13.90;99.90
19588;DHT22;9940;47.252;8.696;2023-05-10T05:33:37;13.90;99.90
19588;DHT22;9940;47.252;8.696;2023-05-10T05:36:05;13.90;99.90
19588;DHT22;9940;47.252;8.696;2023-05-10T05:38:31;13.90;99.90
19588;DHT22;9940;47.252;8.696;2023-05-10T05:41:01;14.00;99.90
19588;DHT22;9940;47.252;8.696;2023-05-10T05:43:27;14.00;99.90
19588;DHT22;9940;47.252;8.696;2023-05-10T05:45:53;14.00;99.90
19588;DHT22;9940;47.252;8.696;2023-05-10T05:48:23;14.00;99.90
19588;DHT22;9940;47.252;8.696;2023-05-10T05:50:51;14.00;99.90
19588;DHT22;9940;47.252;8.696;2023-05-10T05:53:21;14.00;99.90
19588;DHT22;9940;47.252;8.696;2023-05-10T05:55:54;14.00;99.90
19588;DHT22;9940;47.252;8.696;2023-05-10T05:58:23;14.00;99.90
19588;DHT22;9940;47.252;8.696;2023-05-10T06:00:50;14.00;99.90
19588;DHT22;9940;47.252;8.696;2023-05-10T06:03:17;14.00;99.90
19588;DHT22;9940;47.252;8.696;2023-05-10T06:05:43;14.00;99.90
19588;DHT22;9940;47.252;8.696;2023-05-10T06:08:09;14.00;99.90
19588;DHT22;9940;47.252;8.696;2023-05-10T06:10:35;14.00;99.90
19588;DHT22;9940;47.252;8.696;2023-05-10T06:13:03;14.00;99.90
19588;DHT22;9940;47.252;8.696;2023-05-10T06:15:31;14.10;99.90
19588;DHT22;9940;47.252;8.696;2023-05-10T06:18:02;14.10;99.90
19588;DHT22;9940;47.252;8.696;2023-05-10T06:20:27;14.10;99.90
19588;DHT22;9940;47.252;8.696;2023-05-10T06:22:53;14.10;99.90
19588;DHT22;9940;47.252;8.696;2023-05-10T06:25:19;14.10;99.90
19588;DHT22;9940;47.252;8.696;2023-05-10T06:27:44;14.20;99.90
19588;DHT22;9940;47.252;8.696;2023-05-10T06:30:10;14.20;99.90
19588;DHT22;9940;47.252;8.696;2023-05-10T06:32:38;14.20;99.90
19588;DHT22;9940;47.252;8.696;2023-05-10T06:35:04;14.20;99.90
19588;DHT22;9940;47.252;8.696;2023-05-10T06:37:32;14.20;99.90
19588;DHT22;9940;47.252;8.696;2023-05-10T06:40:00;14.30;99.90
19588;DHT22;9940;47.252;8.696;2023-05-10T06:42:29;14.30;99.90
19588;DHT22;9940;47.252;8.696;2023-05-10T06:44:55;14.30;99.90
19588;DHT22;9940;47.252;8.696;2023-05-10T06:47:20;14.30;99.90
19588;DHT22;9940;47.252;8.696;2023-05-10T06:49:49;14.30;99.90
19588;DHT22;9940;47.252;8.696;2023-05-10T06:52:15;14.20;99.90
19588;DHT22;9940;47.252;8.696;2023-05-10T06:54:43;14.20;99.90
19588;DHT22;9940;47.252;8.696;2023-05-10T06:57:09;14.20;99.90
19588;DHT22;9940;47.252;8.696;2023-05-10T06:59:37;14.10;99.90
19588;DHT22;9940;47.252;8.696;2023-05-10T07:02:05;14.10;99.90
19588;DHT22;9940;47.252;8.696;2023-05-10T07:04:33;14.10;99.90
19588;DHT22;9940;47.252;8.696;2023-05-10T07:06:59;14.10;99.90
19588;DHT22;9940;47.252;8.696;2023-05-10T07:09:25;14.10;99.90
19588;DHT22;9940;47.252;8.696;2023-05-10T07:11:50;14.10;99.90
19588;DHT22;9940;47.252;8.696;2023-05-10T07:14:16;14.00;99.90
19588;DHT22;9940;47.252;8.696;2023-05-10T07:16:41;14.10;99.90
19588;DHT22;9940;47.252;8.696;2023-05-10T07:19:07;14.10;99.90
19588;DHT22;9940;47.252;8.696;2023-05-10T07:21:33;14.10;99.90
19588;DHT22;9940;47.252;8.696;2023-05-10T07:24:03;14.20;99.90
19588;DHT22;9940;47.252;8.696;2023-05-10T07:26:29;14.20;99.90
19588;DHT22;9940;47.252;8.696;2023-05-10T07:28:59;14.20;99.90
19588;DHT22;9940;47.252;8.696;2023-05-10T07:31:25;14.30;99.90
19588;DHT22;9940;47.252;8.696;2023-05-10T07:33:51;14.40;99.90
19588;DHT22;9940;47.252;8.696;2023-05-10T07:36:18;14.40;99.90
19588;DHT22;9940;47.252;8.696;2023-05-10T07:38:44;14.40;99.90
19588;DHT22;9940;47.252;8.696;2023-05-10T07:41:11;14.40;99.90
19588;DHT22;9940;47.252;8.696;2023-05-10T07:43:39;14.40;99.90
19588;DHT22;9940;47.252;8.696;2023-05-10T07:46:05;14.40;99.90
19588;DHT22;9940;47.252;8.696;2023-05-10T07:48:31;14.40;99.90
19588;DHT22;9940;47.252;8.696;2023-05-10T07:50:56;14.40;99.90
19588;DHT22;9940;47.252;8.696;2023-05-10T07:53:22;14.30;99.90
19588;DHT22;9940;47.252;8.696;2023-05-10T07:55:53;14.30;99.90
19588;DHT22;9940;47.252;8.696;2023-05-10T07:58:19;14.30;99.90
19588;DHT22;9940;47.252;8.696;2023-05-10T08:00:47;14.30;99.90
19588;DHT22;9940;47.252;8.696;2023-05-10T08:03:14;14.20;99.90
19588;DHT22;9940;47.252;8.696;2023-05-10T08:05:39;14.20;99.90
19588;DHT22;9940;47.252;8.696;2023-05-10T08:08:09;14.10;99.90
19588;DHT22;9940;47.252;8.696;2023-05-10T08:10:40;14.00;99.90
19588;DHT22;9940;47.252;8.696;2023-05-10T08:13:05;14.00;99.90
19588;DHT22;9940;47.252;8.696;2023-05-10T08:15:31;14.00;99.90
19588;DHT22;9940;47.252;8.696;2023-05-10T08:17:57;14.00;99.90
19588;DHT22;9940;47.252;8.696;2023-05-10T08:20:25;14.00;99.90
19588;DHT22;9940;47.252;8.696;2023-05-10T08:22:50;14.10;99.90
19588;DHT22;9940;47.252;8.696;2023-05-10T08:25:18;14.20;99.90
19588;DHT22;9940;47.252;8.696;2023-05-10T08:27:44;14.20;99.90
19588;DHT22;9940;47.252;8.696;2023-05-10T08:30:10;14.30;99.90
19588;DHT22;9940;47.252;8.696;2023-05-10T08:32:35;14.30;99.90
19588;DHT22;9940;47.252;8.696;2023-05-10T08:35:05;14.40;99.90
19588;DHT22;9940;47.252;8.696;2023-05-10T08:37:31;14.40;99.90
19588;DHT22;9940;47.252;8.696;2023-05-10T08:39:58;14.50;99.90
19588;DHT22;9940;47.252;8.696;2023-05-10T08:42:26;14.50;99.90
19588;DHT22;9940;47.252;8.696;2023-05-10T08:44:54;14.60;99.90
19588;DHT22;9940;47.252;8.696;2023-05-10T08:47:20;14.60;99.90
19588;DHT22;9940;47.252;8.696;2023-05-10T08:49:47;14.60;99.90
19588;DHT22;9940;47.252;8.696;2023-05-10T08:54:43;14.80;99.90
19588;DHT22;9940;47.252;8.696;2023-05-10T08:57:11;14.80;99.90
19588;DHT22;9940;47.252;8.696;2023-05-10T08:59:37;14.90;99.90
19588;DHT22;9940;47.252;8.696;2023-05-10T09:02:04;14.90;99.90
19588;DHT22;9940;47.252;8.696;2023-05-10T09:04:33;15.00;99.90
19588;DHT22;9940;47.252;8.696;2023-05-10T09:06:58;15.00;99.90
19588;DHT22;9940;47.252;8.696;2023-05-10T09:09:25;15.00;99.90
19588;DHT22;9940;47.252;8.696;2023-05-10T09:11:51;15.00;99.90
19588;DHT22;9940;47.252;8.696;2023-05-10T09:14:18;15.00;99.90
19588;DHT22;9940;47.252;8.696;2023-05-10T09:16:45;15.00;99.90
19588;DHT22;9940;47.252;8.696;2023-05-10T09:19:11;15.10;99.90
19588;DHT22;9940;47.252;8.696;2023-05-10T09:21:39;15.10;99.90
19588;DHT22;9940;47.252;8.696;2023-05-10T09:24:06;15.20;99.90
19588;DHT22;9940;47.252;8.696;2023-05-10T09:26:32;15.20;99.90
19588;DHT22;9940;47.252;8.696;2023-05-10T09:28:59;15.20;99.90
19588;DHT22;9940;47.252;8.696;2023-05-10T09:31:49;15.20;99.90
19588;DHT22;9940;47.252;8.696;2023-05-10T09:34:29;15.20;99.90
19588;DHT22;9940;47.252;8.696;2023-05-10T09:36:58;15.20;99.90
19588;DHT22;9940;47.252;8.696;2023-05-10T09:39:36;15.20;99.90
19588;DHT22;9940;47.252;8.696;2023-05-10T09:42:04;15.20;99.90
19588;DHT22;9940;47.252;8.696;2023-05-10T09:44:33;15.10;99.90
19588;DHT22;9940;47.252;8.696;2023-05-10T09:47:00;15.10;99.90
19588;DHT22;9940;47.252;8.696;2023-05-10T09:49:29;15.00;99.90
19588;DHT22;9940;47.252;8.696;2023-05-10T09:52:01;15.00;99.90
19588;DHT22;9940;47.252;8.696;2023-05-10T09:54:28;15.00;99.90
19588;DHT22;9940;47.252;8.696;2023-05-10T09:56:53;14.90;99.90
19588;DHT22;9940;47.252;8.696;2023-05-10T09:59:24;14.90;99.90
19588;DHT22;9940;47.252;8.696;2023-05-10T10:01:50;15.00;99.90
19588;DHT22;9940;47.252;8.696;2023-05-10T10:04:20;15.00;99.90
19588;DHT22;9940;47.252;8.696;2023-05-10T10:06:46;15.00;99.90
19588;DHT22;9940;47.252;8.696;2023-05-10T10:09:14;15.00;99.90
19588;DHT22;9940;47.252;8.696;2023-05-10T10:11:42;14.90;99.90
19588;DHT22;9940;47.252;8.696;2023-05-10T10:14:11;14.90;99.90
19588;DHT22;9940;47.252;8.696;2023-05-10T10:16:37;14.90;99.90
19588;DHT22;9940;47.252;8.696;2023-05-10T10:19:10;14.90;99.90
19588;DHT22;9940;47.252;8.696;2023-05-10T10:21:38;14.90;99.90
19588;DHT22;9940;47.252;8.696;2023-05-10T10:24:04;14.80;99.90
19588;DHT22;9940;47.252;8.696;2023-05-10T10:26:35;14.80;99.90
19588;DHT22;9940;47.252;8.696;2023-05-10T10:34:26;14.60;99.90
19588;DHT22;9940;47.252;8.696;2023-05-10T10:36:57;14.60;99.90
19588;DHT22;9940;47.252;8.696;2023-05-10T10:39:28;14.50;99.90
19588;DHT22;9940;47.252;8.696;2023-05-10T10:42:01;14.60;99.90
19588;DHT22;9940;47.252;8.696;2023-05-10T10:52:28;14.70;99.90
19588;DHT22;9940;47.252;8.696;2023-05-10T11:02:56;14.50;99.90
19588;DHT22;9940;47.252;8.696;2023-05-10T11:05:37;14.50;99.90
19588;DHT22;9940;47.252;8.696;2023-05-10T11:13:39;14.40;99.90
19588;DHT22;9940;47.252;8.696;2023-05-10T11:19:01;14.40;99.90
19588;DHT22;9940;47.252;8.696;2023-05-10T11:21:28;14.40;99.90
19588;DHT22;9940;47.252;8.696;2023-05-10T11:23:58;14.40;99.90
19588;DHT22;9940;47.252;8.696;2023-05-10T11:26:31;14.40;99.90
19588;DHT22;9940;47.252;8.696;2023-05-10T11:28:57;14.40;99.90
19588;DHT22;9940;47.252;8.696;2023-05-10T11:31:26;14.40;99.90
19588;DHT22;9940;47.252;8.696;2023-05-10T11:33:58;14.40;99.90
19588;DHT22;9940;47.252;8.696;2023-05-10T11:36:43;14.40;99.90
19588;DHT22;9940;47.252;8.696;2023-05-10T11:39:11;14.40;99.90
19588;DHT22;9940;47.252;8.696;2023-05-10T11:41:37;14.40;99.90
19588;DHT22;9940;47.252;8.696;2023-05-10T11:44:02;14.40;99.90
19588;DHT22;9940;47.252;8.696;2023-05-10T11:46:28;14.40;99.90
19588;DHT22;9940;47.252;8.696;2023-05-10T11:49:00;14.40;99.90
19588;DHT22;9940;47.252;8.696;2023-05-10T11:51:34;14.30;99.90
19588;DHT22;9940;47.252;8.696;2023-05-10T11:54:05;14.20;99.90
19588;DHT22;9940;47.252;8.696;2023-05-10T11:56:33;14.10;99.90
19588;DHT22;9940;47.252;8.696;2023-05-10T11:59:00;14.10;99.90
19588;DHT22;9940;47.252;8.696;2023-05-10T12:01:27;14.00;99.90
19588;DHT22;9940;47.252;8.696;2023-05-10T12:03:57;14.00;99.90
19588;DHT22;9940;47.252;8.696;2023-05-10T12:06:27;14.00;99.90
19588;DHT22;9940;47.252;8.696;2023-05-10T12:08:53;14.00;99.90
19588;DHT22;9940;47.252;8.696;2023-05-10T12:11:20;14.10;99.90
19588;DHT22;9940;47.252;8.696;2023-05-10T12:13:47;14.20;99.90
19588;DHT22;9940;47.252;8.696;2023-05-10T12:16:16;14.40;99.90
19588;DHT22;9940;47.252;8.696;2023-05-10T12:18:46;14.60;99.90
19588;DHT22;9940;47.252;8.696;2023-05-10T12:21:15;14.80;99.90
19588;DHT22;9940;47.252;8.696;2023-05-10T12:23:45;14.80;99.90
19588;DHT22;9940;47.252;8.696;2023-05-10T12:26:14;14.90;99.90
19588;DHT22;9940;47.252;8.696;2023-05-10T12:28:40;14.90;99.90
19588;DHT22;9940;47.252;8.696;2023-05-10T12:31:08;15.00;99.90
19588;DHT22;9940;47.252;8.696;2023-05-10T12:33:41;15.00;99.90
19588;DHT22;9940;47.252;8.696;2023-05-10T12:36:13;15.10;99.90
19588;DHT22;9940;47.252;8.696;2023-05-10T12:38:41;15.10;99.90
19588;DHT22;9940;47.252;8.696;2023-05-10T12:41:12;15.10;99.90
19588;DHT22;9940;47.252;8.696;2023-05-10T12:43:39;15.10;99.90
19588;DHT22;9940;47.252;8.696;2023-05-10T12:46:12;15.00;99.90
19588;DHT22;9940;47.252;8.696;2023-05-10T12:48:40;14.90;99.90
19588;DHT22;9940;47.252;8.696;2023-05-10T12:51:06;14.80;99.90
19588;DHT22;9940;47.252;8.696;2023-05-10T12:53:39;14.80;99.90
19588;DHT22;9940;47.252;8.696;2023-05-10T12:56:05;14.70;99.90
19588;DHT22;9940;47.252;8.696;2023-05-10T12:58:31;14.70;99.90
19588;DHT22;9940;47.252;8.696;2023-05-10T13:00:58;14.60;99.90
19588;DHT22;9940;47.252;8.696;2023-05-10T13:03:24;14.60;99.90
19588;DHT22;9940;47.252;8.696;2023-05-10T13:05:49;14.60;99.90
19588;DHT22;9940;47.252;8.696;2023-05-10T13:08:15;14.60;99.90
19588;DHT22;9940;47.252;8.696;2023-05-10T13:10:41;14.60;99.90
19588;DHT22;9940;47.252;8.696;2023-05-10T13:13:08;14.60;99.90
19588;DHT22;9940;47.252;8.696;2023-05-10T13:15:36;14.60;99.90
19588;DHT22;9940;47.252;8.696;2023-05-10T13:18:04;14.50;99.90
19588;DHT22;9940;47.252;8.696;2023-05-10T13:20:30;14.50;99.90
19588;DHT22;9940;47.252;8.696;2023-05-10T13:22:55;14.50;99.90
19588;DHT22;9940;47.252;8.696;2023-05-10T13:25:21;14.60;99.90
19588;DHT22;9940;47.252;8.696;2023-05-10T13:27:47;14.60;99.90
19588;DHT22;9940;47.252;8.696;2023-05-10T13:30:17;14.70;99.90
19588;DHT22;9940;47.252;8.696;2023-05-10T13:32:42;14.90;99.90
19588;DHT22;9940;47.252;8.696;2023-05-10T13:35:10;15.10;99.90
19588;DHT22;9940;47.252;8.696;2023-05-10T13:40:03;15.90;99.90
19588;DHT22;9940;47.252;8.696;2023-05-10T13:42:29;16.30;99.90
19588;DHT22;9940;47.252;8.696;2023-05-10T13:44:57;16.80;99.90
19588;DHT22;9940;47.252;8.696;2023-05-10T13:47:22;17.90;99.90
19588;DHT22;9940;47.252;8.696;2023-05-10T13:49:48;19.00;99.90
19588;DHT22;9940;47.252;8.696;2023-05-10T13:52:13;19.50;99.90
19588;DHT22;9940;47.252;8.696;2023-05-10T13:54:39;19.50;98.40
19588;DHT22;9940;47.252;8.696;2023-05-10T13:57:07;19.50;97.90
19588;DHT22;9940;47.252;8.696;2023-05-10T13:59:35;19.20;97.50
19588;DHT22;9940;47.252;8.696;2023-05-10T14:02:00;18.70;97.90
19588;DHT22;9940;47.252;8.696;2023-05-10T14:04:32;18.30;99.10
19588;DHT22;9940;47.252;8.696;2023-05-10T14:07:00;17.90;99.90
19588;DHT22;9940;47.252;8.696;2023-05-10T14:09:28;17.60;99.90
19588;DHT22;9940;47.252;8.696;2023-05-10T14:11:53;17.40;99.90
19588;DHT22;9940;47.252;8.696;2023-05-10T14:14:19;17.70;99.90
19588;DHT22;9940;47.252;8.696;2023-05-10T14:16:45;18.30;99.90
19588;DHT22;9940;47.252;8.696;2023-05-10T14:19:11;18.60;99.90
19588;DHT22;9940;47.252;8.696;2023-05-10T14:21:37;18.70;99.30
19588;DHT22;9940;47.252;8.696;2023-05-10T14:24:07;19.00;98.70
19588;DHT22;9940;47.252;8.696;2023-05-10T14:26:33;19.30;97.50
19588;DHT22;9940;47.252;8.696;2023-05-10T14:29:02;19.30;96.50
19588;DHT22;9940;47.252;8.696;2023-05-10T14:31:30;19.10;95.60
19588;DHT22;9940;47.252;8.696;2023-05-10T14:33:56;18.90;95.50
19588;DHT22;9940;47.252;8.696;2023-05-10T14:36:23;18.70;95.70
19588;DHT22;9940;47.252;8.696;2023-05-10T14:38:51;18.70;95.70
19588;DHT22;9940;47.252;8.696;2023-05-10T14:41:17;18.70;95.60
19588;DHT22;9940;47.252;8.696;2023-05-10T14:43:43;18.80;95.30
19588;DHT22;9940;47.252;8.696;2023-05-10T14:46:08;18.90;94.90
19588;DHT22;9940;47.252;8.696;2023-05-10T14:48:34;18.90;94.20
19588;DHT22;9940;47.252;8.696;2023-05-10T14:51:02;19.00;93.70
19588;DHT22;9940;47.252;8.696;2023-05-10T14:53:30;19.10;93.40
19588;DHT22;9940;47.252;8.696;2023-05-10T14:55:56;19.10;93.10
19588;DHT22;9940;47.252;8.696;2023-05-10T14:58:21;19.20;92.70
19588;DHT22;9940;47.252;8.696;2023-05-10T15:00:47;19.20;92.00
19588;DHT22;9940;47.252;8.696;2023-05-10T15:03:12;19.20;91.30
19588;DHT22;9940;47.252;8.696;2023-05-10T15:05:43;19.40;90.60
19588;DHT22;9940;47.252;8.696;2023-05-10T15:08:08;19.60;88.70
19588;DHT22;9940;47.252;8.696;2023-05-10T15:10:38;19.70;85.70
19588;DHT22;9940;47.252;8.696;2023-05-10T15:13:04;19.70;84.20
19588;DHT22;9940;47.252;8.696;2023-05-10T15:15:30;19.50;82.90
19588;DHT22;9940;47.252;8.696;2023-05-10T15:17:56;19.30;81.70
19588;DHT22;9940;47.252;8.696;2023-05-10T15:20:24;19.00;81.10
19588;DHT22;9940;47.252;8.696;2023-05-10T15:22:54;18.80;80.70
19588;DHT22;9940;47.252;8.696;2023-05-10T15:25:23;18.50;80.90
19588;DHT22;9940;47.252;8.696;2023-05-10T15:27:49;18.30;82.20
19588;DHT22;9940;47.252;8.696;2023-05-10T15:30:14;18.10;83.60
19588;DHT22;9940;47.252;8.696;2023-05-10T15:32:40;17.70;85.20
19588;DHT22;9940;47.252;8.696;2023-05-10T15:35:08;17.50;87.10
19588;DHT22;9940;47.252;8.696;2023-05-10T15:37:36;17.20;89.10
19588;DHT22;9940;47.252;8.696;2023-05-10T15:40:05;17.00;90.30
19588;DHT22;9940;47.252;8.696;2023-05-10T15:42:31;16.80;91.00
19588;DHT22;9940;47.252;8.696;2023-05-10T15:45:01;16.70;91.90
19588;DHT22;9940;47.252;8.696;2023-05-10T15:47:26;16.50;92.60
19588;DHT22;9940;47.252;8.696;2023-05-10T15:49:55;16.50;92.90
19588;DHT22;9940;47.252;8.696;2023-05-10T15:52:23;16.40;92.90
19588;DHT22;9940;47.252;8.696;2023-05-10T15:54:51;16.40;92.50
19588;DHT22;9940;47.252;8.696;2023-05-10T15:57:17;16.50;92.20
19588;DHT22;9940;47.252;8.696;2023-05-10T15:59:43;16.60;92.10
19588;DHT22;9940;47.252;8.696;2023-05-10T16:02:09;16.80;92.40
19588;DHT22;9940;47.252;8.696;2023-05-10T16:04:35;16.80;92.80
19588;DHT22;9940;47.252;8.696;2023-05-10T16:07:02;16.90;93.20
19588;DHT22;9940;47.252;8.696;2023-05-10T16:09:27;16.90;93.50
19588;DHT22;9940;47.252;8.696;2023-05-10T16:11:56;17.00;93.70
19588;DHT22;9940;47.252;8.696;2023-05-10T16:14:21;17.10;93.60
19588;DHT22;9940;47.252;8.696;2023-05-10T16:16:49;17.00;93.10
19588;DHT22;9940;47.252;8.696;2023-05-10T16:19:14;17.00;92.80
19588;DHT22;9940;47.252;8.696;2023-05-10T16:21:43;16.90;92.70
19588;DHT22;9940;47.252;8.696;2023-05-10T16:24:08;16.80;92.80
19588;DHT22;9940;47.252;8.696;2023-05-10T16:26:34;16.80;92.90
19588;DHT22;9940;47.252;8.696;2023-05-10T16:29:06;16.80;93.10
19588;DHT22;9940;47.252;8.696;2023-05-10T16:31:32;16.70;93.30
19588;DHT22;9940;47.252;8.696;2023-05-10T16:34:00;16.50;93.80
19588;DHT22;9940;47.252;8.696;2023-05-10T16:36:28;16.40;94.50
19588;DHT22;9940;47.252;8.696;2023-05-10T16:38:56;16.20;95.00
19588;DHT22;9940;47.252;8.696;2023-05-10T16:41:23;16.10;95.70
19588;DHT22;9940;47.252;8.696;2023-05-10T16:43:51;15.90;96.30